Terminal Aerodrome Forecast
Issued by NWS Mobile, AL

Home | Current Version | Previous Version | Text Only | Print | Product List | Glossary On
Versions: 1 2 3 4 5 6 7 8 9 10 11 12 13 14 15 16 17 18 19 20 21 22 23 24 25 26 27 28
000
FTUS44 KMOB 260549
TAFPNS
TAF
KPNS 260549Z 2606/2706 15010KT P6SM VCSH SCT013 SCT017
     FM260800 14007KT P6SM VCSH BKN011
     FM261400 16015G22KT P6SM VCTS SCT025CB BKN035 PROB30 2616/2622
      5SM TSRA BKN025CB
     FM270000 16009KT P6SM BKN035 OVC120 PROB30 2700/2706 5SM -TSRA
      BKN025CB=

USA.gov is the U.S. government's official web portal to all federal, state and local government web resources and services.